West Sacramento, California
Current Conditions -  °F | °C
As of 8:17 AM on Saturday 25 Oct 2014 (Local Time) from KSAC Reporting Station
Light Rain Light Rain  
Wind Chill: 61°   Ceiling: 1800
Heat Index: 61°   Visibility: 1.5mi
Dew Point: 57°   Wind: 10mph
Humidity: 88%   Direction: 210°SSW
Pressure: 30"   Gusts: 18mph
Location:  38.57°N, 121.55°W
Report Text: KSAC 251517Z 21009G16KT 1 1/2SM -RA BR FEW006 SCT012 OVC018 16/14 A3000 RMK AO2 P0005
Loading
Personal Weather Stations






























Interactive Weather Map
Tropical Storm Tracking
New forecast layout! Learn more

10-Day Weather Forecast

Advertisements
Track Severe Weather on mobile